• vieta
  • image
  • image
  • image
mod_vvisit_countermod_vvisit_countermod_vvisit_countermod_vvisit_countermod_vvisit_countermod_vvisit_counter
mod_vvisit_counterŠiandien924
mod_vvisit_counterVakar341
mod_vvisit_counterŠią savaitę1265
mod_vvisit_counterPraėjusią savaitę3508
mod_vvisit_counterŠį mėnesį65216
mod_vvisit_counterPraėjusį mėnesį16914
mod_vvisit_counterViso428631

Mes turime: 2 svečius online
Jūsų IP: 54.196.101.145
 , 
Šiandien: Lie 26, 2016

Šiandien

Antradienis, 26 Liepa 2016

Orų prognozė

Šiauliai 27 °C
   

Orų prognozė aviacijai

[source: ADDS]
METAR
EYSA 261550Z 23007KT CAVOK 27/14 Q1016 BLU NOSIG =
TAF
TAF EYSA 261400Z 2615/2624 VRB04KT 9000 SCT030 BECMG 2621/2623 3000 BR SCT005 =
SR / SS: 02:27 / 18:41 UTC (EYSA 2016-07-26)

Paieška

Lankytojai

Mes turime 2 svečius online

tic logo lt